createdAt,value
2018-08-06T00:01:54.712Z,97174.27
2018-08-06T00:04:24.004Z,97168.30
2018-08-06T00:06:53.844Z,97163.54
2018-08-06T00:09:23.130Z,97161.45
2018-08-06T00:11:53.009Z,97158.06
2018-08-06T00:14:23.949Z,97166.80
2018-08-06T00:16:55.500Z,97166.80
2018-08-06T00:19:26.331Z,97166.80
2018-08-06T00:21:55.984Z,97171.59
2018-08-06T00:24:26.053Z,97178.55
2018-08-06T00:26:55.815Z,97179.53
2018-08-06T00:29:25.976Z,97186.10
2018-08-06T00:31:55.696Z,97184.50
2018-08-06T00:34:24.844Z,97178.64
2018-08-06T00:36:54.392Z,97180.53
2018-08-06T00:39:23.668Z,97177.63
2018-08-06T00:41:53.144Z,97168.66
2018-08-06T00:44:22.382Z,97162.75
2018-08-06T00:46:51.829Z,97161.92
2018-08-06T00:49:21.104Z,97163.71
2018-08-06T00:51:51.916Z,97162.16
2018-08-06T00:54:21.226Z,97165.98
2018-08-06T00:56:52.472Z,97162.21
2018-08-06T00:59:21.756Z,97163.99
2018-08-06T01:01:51.919Z,97160.71
2018-08-06T01:04:21.352Z,97158.16
2018-08-06T01:06:51.044Z,97163.44
2018-08-06T01:09:23.366Z,97156.64
2018-08-06T01:11:53.131Z,97157.16
2018-08-06T01:14:23.508Z,97154.29
2018-08-06T01:16:53.412Z,97150.00
2018-08-06T01:19:22.962Z,97144.03
2018-08-06T01:21:53.200Z,97147.52
2018-08-06T01:24:22.570Z,97140.26
2018-08-06T01:26:52.248Z,97143.80
2018-08-06T01:29:21.818Z,97138.27
2018-08-06T01:31:51.812Z,97131.91
2018-08-06T01:34:21.228Z,97136.86
2018-08-06T01:36:50.948Z,97139.52
2018-08-06T01:39:20.447Z,97132.36
2018-08-06T01:41:50.192Z,97129.45
2018-08-06T01:44:19.939Z,97128.36
2018-08-06T01:46:49.668Z,97130.14
2018-08-06T01:49:18.946Z,97130.58
2018-08-06T01:51:49.609Z,97128.43
2018-08-06T01:54:19.997Z,97129.91
2018-08-06T01:56:49.882Z,97130.30
2018-08-06T01:59:20.188Z,97137.61
2018-08-06T02:01:49.862Z,97138.84
2018-08-06T02:04:19.184Z,97135.46
2018-08-06T02:06:48.462Z,97135.14
2018-08-06T02:09:18.169Z,97142.11
2018-08-06T02:11:47.346Z,97131.78
2018-08-06T02:27:15.964Z,97131.78
2018-08-06T02:29:45.518Z,97137.48
2018-08-06T02:32:14.820Z,97141.45
2018-08-06T02:34:44.061Z,97143.55
2018-08-06T02:37:13.480Z,97134.09
2018-08-06T02:39:42.765Z,97135.00
2018-08-06T02:42:12.254Z,97135.90
2018-08-06T02:44:41.403Z,97134.19
2018-08-06T02:47:10.614Z,97133.33
2018-08-06T02:49:39.818Z,97135.58
2018-08-06T02:52:09.103Z,97129.13
2018-08-06T02:54:40.095Z,97130.51
2018-08-06T02:57:09.333Z,97130.98
2018-08-06T02:59:39.025Z,97123.31
2018-08-06T03:02:10.927Z,97128.66
2018-08-06T03:04:42.059Z,97125.18
2018-08-06T03:07:11.768Z,97125.70
2018-08-06T03:09:44.842Z,97131.38
2018-08-06T03:12:14.789Z,97132.05
2018-08-06T03:14:44.266Z,97133.44
2018-08-06T03:17:15.155Z,97128.52
2018-08-06T03:19:44.412Z,97130.33
2018-08-06T03:22:14.380Z,97135.56
2018-08-06T03:24:43.921Z,97133.08
2018-08-06T03:27:15.570Z,97133.31
2018-08-06T03:29:44.899Z,97137.70
2018-08-06T03:32:14.124Z,97134.02
2018-08-06T03:34:45.781Z,97138.23
2018-08-06T03:37:15.257Z,97131.58
2018-08-06T03:39:44.678Z,97136.38
2018-08-06T03:42:15.997Z,97143.37
2018-08-06T03:44:45.351Z,97144.66
2018-08-06T03:47:14.695Z,97147.31
2018-08-06T03:49:43.985Z,97146.15
2018-08-06T03:52:13.184Z,97148.33
2018-08-06T03:54:42.567Z,97144.55
2018-08-06T04:10:11.386Z,97152.70
2018-08-06T04:12:42.483Z,97138.13
2018-08-06T04:15:12.068Z,97137.74
2018-08-06T04:17:42.330Z,97146.35
2018-08-06T04:20:12.527Z,97143.82
2018-08-06T04:22:45.857Z,97145.61
2018-08-06T04:25:18.529Z,97146.91
2018-08-06T04:27:47.794Z,97147.38
2018-08-06T04:30:16.927Z,97149.13
2018-08-06T04:32:46.794Z,97149.55
2018-08-06T04:35:16.388Z,97146.09
2018-08-06T04:37:45.874Z,97148.27
2018-08-06T04:40:15.285Z,97152.59
2018-08-06T04:42:44.444Z,97152.20
2018-08-06T04:45:15.672Z,97159.48
2018-08-06T04:47:44.807Z,97162.98
2018-08-06T04:50:15.048Z,97163.89
2018-08-06T04:52:45.384Z,97169.06
2018-08-06T04:55:15.420Z,97167.78
2018-08-06T04:57:44.626Z,97169.42
2018-08-06T05:00:15.827Z,97173.70
2018-08-06T05:02:45.348Z,97173.56
2018-08-06T05:05:14.482Z,97176.48
2018-08-06T05:07:43.862Z,97171.73
2018-08-06T05:10:14.774Z,97170.33
2018-08-06T05:12:43.884Z,97170.17
2018-08-06T05:15:13.708Z,97170.95
2018-08-06T05:17:43.027Z,97170.88
2018-08-06T05:20:12.166Z,97168.15
2018-08-06T05:22:41.394Z,97172.27
2018-08-06T05:25:10.741Z,97174.19
2018-08-06T05:27:39.972Z,97175.34
2018-08-06T05:30:10.995Z,97176.08
2018-08-06T05:32:40.229Z,97171.66
2018-08-06T05:35:09.460Z,97169.04
2018-08-06T05:37:40.485Z,97173.59
2018-08-06T05:40:10.522Z,97181.63
2018-08-06T05:42:39.719Z,97177.16
2018-08-06T05:45:10.192Z,97180.45
2018-08-06T05:47:40.131Z,97184.10
2018-08-06T05:50:11.768Z,97185.34
2018-08-06T05:52:42.583Z,97185.16
2018-08-06T05:55:12.212Z,97184.12
2018-08-06T05:57:42.326Z,97183.98
2018-08-06T06:00:16.328Z,97180.27
2018-08-06T06:02:46.802Z,97193.74
2018-08-06T06:05:17.788Z,97183.09
2018-08-06T06:07:46.970Z,97189.24
2018-08-06T06:10:16.413Z,97182.58
2018-08-06T06:12:45.602Z,97175.55
2018-08-06T06:15:16.135Z,97181.52
2018-08-06T06:17:46.140Z,97185.29
2018-08-06T06:20:17.076Z,97186.48
2018-08-06T06:22:46.243Z,97185.89
2018-08-06T06:25:15.417Z,97187.84
2018-08-06T06:27:45.048Z,97190.16
2018-08-06T06:30:16.435Z,97189.19
2018-08-06T06:32:46.565Z,97184.73
2018-08-06T06:35:17.509Z,97185.00
2018-08-06T06:37:46.636Z,97184.47
2018-08-06T06:40:16.153Z,97180.91
2018-08-06T06:42:45.332Z,97181.41
2018-08-06T06:45:15.216Z,97179.48
2018-08-06T06:47:44.628Z,97182.77
2018-08-06T06:50:13.819Z,97180.08
2018-08-06T06:52:42.960Z,97183.47
2018-08-06T06:55:14.047Z,97173.34
2018-08-06T06:57:44.005Z,97179.08
2018-08-06T07:00:13.239Z,97174.86
2018-08-06T07:02:42.886Z,97177.95
2018-08-06T07:05:12.222Z,97182.81
2018-08-06T07:07:41.526Z,97175.86
2018-08-06T07:10:11.852Z,97177.94
2018-08-06T07:12:41.200Z,97175.84
2018-08-06T07:15:16.318Z,97175.91
2018-08-06T07:17:47.191Z,97173.84
2018-08-06T07:20:18.025Z,97179.44
2018-08-06T07:22:49.562Z,97179.90
2018-08-06T07:25:18.870Z,97175.97
2018-08-06T07:27:48.783Z,97168.66
2018-08-06T07:30:18.251Z,97173.62
2018-08-06T07:32:47.445Z,97169.89
2018-08-06T07:35:17.406Z,97174.51
2018-08-06T07:37:46.584Z,97170.43
2018-08-06T07:40:16.193Z,97168.28
2018-08-06T07:42:45.510Z,97166.13
2018-08-06T07:45:19.678Z,97162.28
2018-08-06T07:47:49.828Z,97165.23
2018-08-06T07:50:22.905Z,97166.61
2018-08-06T07:52:53.752Z,97161.97
2018-08-06T07:55:22.949Z,97158.08
2018-08-06T07:57:53.869Z,97156.91
2018-08-06T08:00:23.087Z,97156.67
2018-08-06T08:02:53.350Z,97157.08
2018-08-06T08:05:22.524Z,97148.94
2018-08-06T08:07:53.668Z,97148.55
2018-08-06T08:10:24.051Z,97145.66
2018-08-06T08:12:53.772Z,97144.88
2018-08-06T08:15:25.329Z,97147.30
2018-08-06T08:17:56.941Z,97141.14
2018-08-06T08:20:26.674Z,97143.33
2018-08-06T08:22:56.500Z,97139.44
2018-08-06T08:25:26.878Z,97140.21
2018-08-06T08:27:56.877Z,97135.02
2018-08-06T08:30:27.983Z,97146.82
2018-08-06T08:32:57.729Z,97139.55
2018-08-06T08:35:31.790Z,97140.19
2018-08-06T08:38:01.777Z,97136.25
2018-08-06T08:40:31.243Z,97144.01
2018-08-06T08:43:00.907Z,97135.80
2018-08-06T08:45:30.995Z,97133.25
2018-08-06T08:48:00.631Z,97128.31
2018-08-06T08:50:31.564Z,97130.31
2018-08-06T08:53:01.235Z,97125.99
2018-08-06T08:55:30.628Z,97128.30
2018-08-06T08:58:00.260Z,97125.99
2018-08-06T09:00:32.018Z,97125.99
2018-08-06T09:03:01.628Z,97127.67
2018-08-06T09:05:30.849Z,97126.81
2018-08-06T09:08:00.458Z,97128.19
2018-08-06T09:10:29.675Z,97121.69
2018-08-06T09:12:59.488Z,97124.65
2018-08-06T09:15:30.572Z,97122.94
2018-08-06T09:18:00.220Z,97118.38
2018-08-06T09:20:29.518Z,97119.61
2018-08-06T09:22:59.119Z,97116.56
2018-08-06T09:25:28.401Z,97116.80
2018-08-06T09:27:58.029Z,97112.29
2018-08-06T09:30:28.073Z,97114.97
2018-08-06T09:32:58.349Z,97114.73
2018-08-06T09:35:28.373Z,97112.21
2018-08-06T09:37:58.002Z,97108.78
2018-08-06T09:40:27.292Z,97102.03
2018-08-06T09:42:59.100Z,97109.77
2018-08-06T09:45:28.435Z,97102.97
2018-08-06T09:47:58.149Z,97102.09
2018-08-06T09:50:27.342Z,97097.17
2018-08-06T09:52:56.900Z,97098.77
2018-08-06T09:55:27.970Z,97095.39
2018-08-06T09:57:57.564Z,97092.20
2018-08-06T10:00:32.237Z,97087.66
2018-08-06T10:03:02.649Z,97086.47
2018-08-06T10:05:34.631Z,97088.00
2018-08-06T10:08:04.339Z,97092.30
2018-08-06T10:10:33.593Z,97093.11
2018-08-06T10:13:03.234Z,97091.35
2018-08-06T10:15:32.477Z,97083.63
2018-08-06T10:18:01.798Z,97084.53
2018-08-06T10:20:31.716Z,97080.84
2018-08-06T10:23:01.672Z,97079.75
2018-08-06T10:25:30.871Z,97079.43
2018-08-06T10:28:00.817Z,97084.68
2018-08-06T10:30:30.068Z,97073.70
2018-08-06T10:33:00.917Z,97068.70
2018-08-06T10:35:30.927Z,97069.80
2018-08-06T10:38:02.012Z,97062.72
2018-08-06T10:40:34.646Z,97062.76
2018-08-06T10:43:03.969Z,97061.45
2018-08-06T10:45:33.344Z,97063.92
2018-08-06T10:48:04.285Z,97057.00
2018-08-06T10:50:33.569Z,97051.44
2018-08-06T10:53:03.060Z,97054.61
2018-08-06T10:55:32.255Z,97050.89
2018-08-06T10:58:01.823Z,97046.83
2018-08-06T11:00:31.756Z,97046.47
2018-08-06T11:03:01.337Z,97044.42
2018-08-06T11:05:33.147Z,97040.11
2018-08-06T11:08:02.800Z,97036.94
2018-08-06T11:10:32.077Z,97032.11
2018-08-06T11:13:02.504Z,97030.61
2018-08-06T11:15:31.720Z,97026.78
2018-08-06T11:18:01.289Z,97028.73
2018-08-06T11:20:30.941Z,97021.27
2018-08-06T11:23:02.065Z,97019.61
2018-08-06T11:25:31.240Z,97016.80
2018-08-06T11:28:00.441Z,97016.99
2018-08-06T11:30:30.444Z,97009.52
2018-08-06T11:33:00.182Z,97011.87
2018-08-06T11:35:29.517Z,97008.95
2018-08-06T11:37:59.117Z,97006.32
2018-08-06T11:40:28.326Z,97006.92
2018-08-06T11:42:57.931Z,97003.44
2018-08-06T11:45:27.249Z,96998.75
2018-08-06T11:47:56.790Z,96992.84
2018-08-06T11:50:26.183Z,96989.53
2018-08-06T11:52:57.634Z,96996.50
2018-08-06T11:55:26.815Z,96994.09
2018-08-06T11:57:56.405Z,96984.02
2018-08-06T12:00:27.897Z,96981.17
2018-08-06T12:02:59.329Z,96988.66
2018-08-06T12:05:28.607Z,96982.41
2018-08-06T12:07:58.964Z,96982.51
2018-08-06T12:10:28.138Z,96977.91
2018-08-06T12:12:58.203Z,96971.98
2018-08-06T12:15:27.429Z,96970.02
2018-08-06T12:17:57.048Z,96957.50
2018-08-06T12:20:30.915Z,96958.11
2018-08-06T12:23:00.669Z,96963.09
2018-08-06T12:25:30.644Z,96958.59
2018-08-06T12:28:00.505Z,96957.06
2018-08-06T12:30:29.932Z,96957.02
2018-08-06T12:33:01.225Z,96949.84
2018-08-06T12:35:30.360Z,96941.92
2018-08-06T12:38:00.127Z,96946.75
2018-08-06T12:40:29.351Z,96946.91
2018-08-06T12:43:00.617Z,96950.11
2018-08-06T12:45:30.662Z,96939.85
2018-08-06T12:48:00.187Z,96943.17
2018-08-06T12:50:29.392Z,96930.76
2018-08-06T12:53:00.605Z,96934.36
2018-08-06T12:55:29.846Z,96927.97
2018-08-06T12:57:59.470Z,96928.67
2018-08-06T13:00:28.648Z,96929.41
2018-08-06T13:02:59.104Z,96913.92
2018-08-06T13:05:28.293Z,96915.34
2018-08-06T13:07:57.822Z,96913.25
2018-08-06T13:10:28.814Z,96907.43
2018-08-06T13:13:00.093Z,96899.56
2018-08-06T13:15:29.301Z,96901.94
2018-08-06T13:18:00.540Z,96897.19
2018-08-06T13:20:29.779Z,96894.29
2018-08-06T13:22:59.287Z,96896.36
2018-08-06T13:38:28.660Z,96881.37
2018-08-06T13:40:58.705Z,96875.39
2018-08-06T13:43:29.865Z,96867.28
2018-08-06T13:45:59.253Z,96866.38
2018-08-06T13:48:28.458Z,96860.42
2018-08-06T13:50:58.091Z,96857.81
2018-08-06T13:53:29.107Z,96859.73
2018-08-06T13:55:58.680Z,96858.66
2018-08-06T13:58:27.920Z,96855.44
2018-08-06T14:00:57.904Z,96851.37
2018-08-06T14:03:28.935Z,96851.63
2018-08-06T14:05:58.472Z,96856.49
2018-08-06T14:08:27.757Z,96844.41
2018-08-06T14:10:58.788Z,96848.47
2018-08-06T14:13:28.050Z,96842.16
2018-08-06T14:15:57.736Z,96845.72
2018-08-06T14:18:27.825Z,96840.05
2018-08-06T14:20:58.294Z,96840.05
2018-08-06T14:23:27.544Z,96831.53
2018-08-06T14:25:59.101Z,96828.18
2018-08-06T14:28:28.294Z,96821.81
2018-08-06T14:30:59.555Z,96817.86
2018-08-06T14:33:28.744Z,96816.49
2018-08-06T14:35:58.408Z,96813.50
2018-08-06T14:38:27.611Z,96803.45
2018-08-06T14:40:58.841Z,96802.23
2018-08-06T14:43:29.734Z,96798.56
2018-08-06T14:45:59.468Z,96796.92
2018-08-06T14:48:30.209Z,96789.16
2018-08-06T14:50:59.870Z,96796.71
2018-08-06T14:53:31.666Z,96801.39
2018-08-06T14:56:01.398Z,96797.76
2018-08-06T14:58:32.296Z,96794.09
2018-08-06T15:01:01.860Z,96789.23
2018-08-06T15:03:31.094Z,96788.12
2018-08-06T15:06:00.713Z,96780.78
2018-08-06T15:08:29.987Z,96782.84
2018-08-06T15:11:01.530Z,96776.95
2018-08-06T15:13:30.814Z,96779.09
2018-08-06T15:16:01.326Z,96785.85
2018-08-06T15:18:30.566Z,96779.33
2018-08-06T15:21:01.608Z,96773.98
2018-08-06T15:23:30.894Z,96775.02
2018-08-06T15:26:00.575Z,96776.34
2018-08-06T15:28:29.902Z,96776.67
2018-08-06T15:30:59.474Z,96770.80
2018-08-06T15:33:29.464Z,96772.52
2018-08-06T15:35:59.057Z,96769.13
2018-08-06T15:38:28.673Z,96770.81
2018-08-06T15:40:58.337Z,96769.05
2018-08-06T15:43:27.623Z,96772.83
2018-08-06T15:45:58.670Z,96767.56
2018-08-06T15:48:28.731Z,96769.72
2018-08-06T15:50:58.590Z,96766.97
2018-08-06T15:53:28.372Z,96767.68
2018-08-06T15:55:57.968Z,96768.13
2018-08-06T15:58:28.220Z,96770.60
2018-08-06T16:00:58.719Z,96764.69
2018-08-06T16:03:28.191Z,96762.53
2018-08-06T16:05:58.481Z,96760.88
2018-08-06T16:08:29.841Z,96761.30
2018-08-06T16:10:59.536Z,96761.19
2018-08-06T16:13:29.791Z,96752.99
2018-08-06T16:15:59.817Z,96757.73
2018-08-06T16:18:29.479Z,96751.80
2018-08-06T16:20:59.150Z,96759.45
2018-08-06T16:23:30.065Z,96758.17
2018-08-06T16:25:59.723Z,96761.25
2018-08-06T16:28:28.919Z,96760.58
2018-08-06T16:30:58.535Z,96758.36
2018-08-06T16:33:27.795Z,96762.20
2018-08-06T16:35:57.362Z,96768.41
2018-08-06T16:38:26.583Z,96760.91
2018-08-06T16:40:56.232Z,96761.38
2018-08-06T16:43:25.500Z,96760.16
2018-08-06T16:45:55.165Z,96752.52
2018-08-06T16:48:24.479Z,96749.39
2018-08-06T16:50:53.737Z,96755.58
2018-08-06T16:53:23.718Z,96757.08
2018-08-06T16:55:53.751Z,96750.52
2018-08-06T16:58:23.462Z,96752.25
2018-08-06T17:00:52.841Z,96748.92
2018-08-06T17:03:22.096Z,96746.59
2018-08-06T17:05:53.068Z,96747.39
2018-08-06T17:08:23.188Z,96745.65
2018-08-06T17:10:54.656Z,96749.90
2018-08-06T17:13:23.959Z,96749.05
2018-08-06T17:15:55.289Z,96762.08
2018-08-06T17:18:24.597Z,96762.97
2018-08-06T17:20:53.990Z,96753.15
2018-08-06T17:23:23.658Z,96755.81
2018-08-06T17:25:52.973Z,96749.69
2018-08-06T17:28:24.028Z,96747.95
2018-08-06T17:30:55.382Z,96741.70
2018-08-06T17:33:24.731Z,96737.97
2018-08-06T17:35:54.067Z,96749.97
2018-08-06T17:38:24.383Z,96758.45
2018-08-06T17:40:55.606Z,96755.19
2018-08-06T17:43:26.593Z,96760.69
2018-08-06T17:45:59.490Z,96764.38
2018-08-06T17:48:29.715Z,96767.51
2018-08-06T17:50:59.311Z,96764.59
2018-08-06T17:53:28.535Z,96769.75
2018-08-06T17:55:58.190Z,96770.61
2018-08-06T17:58:27.419Z,96781.06
2018-08-06T18:00:57.056Z,96777.75
2018-08-06T18:03:27.114Z,96782.66
2018-08-06T18:05:56.823Z,96785.66
2018-08-06T18:08:26.864Z,96788.68
2018-08-06T18:10:56.711Z,96788.33
2018-08-06T18:13:26.878Z,96794.67
2018-08-06T18:15:58.043Z,96798.25
2018-08-06T18:18:29.024Z,96796.52
2018-08-06T18:20:58.790Z,96794.34
2018-08-06T18:23:28.293Z,96796.41
2018-08-06T18:25:58.046Z,96793.82
2018-08-06T18:28:30.629Z,96793.80
2018-08-06T18:31:03.039Z,96799.52
2018-08-06T18:33:33.235Z,96810.98
2018-08-06T18:36:03.014Z,96811.94
2018-08-06T18:38:34.101Z,96813.83
2018-08-06T18:41:05.170Z,96800.69
2018-08-06T18:43:34.805Z,96800.33
2018-08-06T18:46:04.350Z,96804.77
2018-08-06T18:48:33.657Z,96799.53
2018-08-06T18:51:04.440Z,96810.80
2018-08-06T18:53:33.592Z,96803.80
2018-08-06T18:56:05.440Z,96813.34
2018-08-06T18:58:36.531Z,96803.84
2018-08-06T19:01:06.602Z,96810.68
2018-08-06T19:03:35.915Z,96821.97
2018-08-06T19:06:06.936Z,96817.13
2018-08-06T19:08:37.603Z,96817.05
2018-08-06T19:11:06.820Z,96823.71
2018-08-06T19:26:36.105Z,96831.08
2018-08-06T19:29:21.004Z,96836.72
2018-08-06T19:31:50.327Z,96837.96
2018-08-06T19:34:19.668Z,96843.72
2018-08-06T19:36:54.207Z,96843.66
2018-08-06T19:39:23.656Z,96844.91
2018-08-06T19:41:53.767Z,96841.88
2018-08-06T19:44:23.044Z,96838.45
2018-08-06T19:46:52.361Z,96832.66
2018-08-06T19:49:26.920Z,96837.62
2018-08-06T19:51:56.598Z,96839.45
2018-08-06T19:54:25.861Z,96831.05
2018-08-06T19:56:55.454Z,96836.55
2018-08-06T19:59:26.528Z,96839.56
2018-08-06T20:01:56.312Z,96837.99
2018-08-06T20:04:25.863Z,96843.40
2018-08-06T20:06:55.624Z,96847.82
2018-08-06T20:09:24.964Z,96848.44
2018-08-06T20:11:54.276Z,96845.67
2018-08-06T20:14:25.311Z,96850.42
2018-08-06T20:16:54.531Z,96847.98
2018-08-06T20:19:25.188Z,96844.02
2018-08-06T20:21:54.760Z,96838.17
2018-08-06T20:24:24.324Z,96841.33
2018-08-06T20:26:53.563Z,96835.12
2018-08-06T20:29:24.524Z,96839.55
2018-08-06T20:31:55.652Z,96836.18
2018-08-06T20:34:26.864Z,96833.30
2018-08-06T20:36:59.158Z,96846.80
2018-08-06T20:39:30.134Z,96840.91
2018-08-06T20:41:59.360Z,96848.17
2018-08-06T20:44:28.765Z,96850.67
2018-08-06T20:47:00.123Z,96849.34
2018-08-06T20:49:30.019Z,96856.95
2018-08-06T20:51:59.364Z,96859.82
2018-08-06T20:54:28.557Z,96858.67
2018-08-06T20:56:58.273Z,96855.05
2018-08-06T20:59:27.456Z,96857.42
2018-08-06T21:02:01.133Z,96852.87
2018-08-06T21:04:30.749Z,96857.44
2018-08-06T21:07:01.632Z,96861.47
2018-08-06T21:09:30.878Z,96852.77
2018-08-06T21:12:00.837Z,96854.61
2018-08-06T21:14:30.030Z,96851.63
2018-08-06T21:17:00.025Z,96858.55
2018-08-06T21:19:29.217Z,96857.73
2018-08-06T21:21:58.903Z,96861.98
2018-08-06T21:24:28.601Z,96869.91
2018-08-06T21:26:58.197Z,96875.62
2018-08-06T21:29:27.364Z,96862.25
2018-08-06T21:31:56.883Z,96868.36
2018-08-06T21:34:26.093Z,96870.31
2018-08-06T21:36:55.327Z,96867.87
2018-08-06T21:39:27.148Z,96868.28
2018-08-06T21:41:56.651Z,96866.05
2018-08-06T21:44:27.845Z,96871.34
2018-08-06T21:46:57.101Z,96863.34
2018-08-06T21:49:26.360Z,96870.19
2018-08-06T21:51:55.567Z,96869.92
2018-08-06T21:54:24.993Z,96861.92
2018-08-06T21:56:54.375Z,96870.06
2018-08-06T21:59:23.670Z,96866.69
2018-08-06T22:01:53.897Z,96873.16
2018-08-06T22:04:25.013Z,96860.73
2018-08-06T22:06:54.468Z,96867.61
2018-08-06T22:09:23.842Z,96865.91
2018-08-06T22:11:53.259Z,96865.91
2018-08-06T22:14:23.379Z,96858.14
2018-08-06T22:16:52.948Z,96856.98
2018-08-06T22:19:24.904Z,96860.87
2018-08-06T22:21:54.198Z,96856.98
2018-08-06T22:24:25.265Z,96856.06
2018-08-06T22:26:54.651Z,96860.09
2018-08-06T22:29:26.453Z,96863.98
2018-08-06T22:31:55.773Z,96857.64
2018-08-06T22:34:25.203Z,96855.05
2018-08-06T22:36:54.752Z,96856.86
2018-08-06T22:39:25.697Z,96852.70
2018-08-06T22:41:55.031Z,96855.44
2018-08-06T22:44:25.510Z,96857.31
2018-08-06T22:46:56.859Z,96856.20
2018-08-06T22:49:30.287Z,96855.04
2018-08-06T22:51:59.805Z,96849.59
2018-08-06T22:54:29.143Z,96851.02
2018-08-06T22:56:58.836Z,96857.12
2018-08-06T22:59:29.302Z,96855.52
2018-08-06T23:02:04.092Z,96852.22
2018-08-06T23:04:35.303Z,96850.59
2018-08-06T23:07:05.543Z,96851.58
2018-08-06T23:09:36.990Z,96847.72
2018-08-06T23:12:09.167Z,96851.05
2018-08-06T23:14:40.896Z,96854.19
2018-08-06T23:17:10.573Z,96852.20
2018-08-06T23:19:40.003Z,96855.37
2018-08-06T23:22:09.467Z,96850.96
2018-08-06T23:24:41.688Z,96843.78
2018-08-06T23:27:11.109Z,96842.61
2018-08-06T23:29:43.712Z,96831.01
2018-08-06T23:32:13.222Z,96834.67
2018-08-06T23:34:45.422Z,96830.29
2018-08-06T23:37:16.693Z,96821.64
2018-08-06T23:39:46.953Z,96818.92
2018-08-06T23:42:16.488Z,96815.45
2018-08-06T23:44:46.398Z,96817.19
2018-08-06T23:47:17.815Z,96821.52
2018-08-06T23:49:47.218Z,96810.80
2018-08-06T23:52:16.607Z,96813.38
2018-08-06T23:54:45.998Z,96807.02
2018-08-06T23:57:15.299Z,96809.73
2018-08-06T23:59:44.642Z,96800.30
